world map with EGXT marked

EGXT - Airport

This information may not be accurate or current and is not valid for navigation or flight planning. No warranty of fitness for any purpose is made or implied.

flag of Englandflag of United Kingdom

Donate via PayPal

Additional information is available on the NEW Great Circle Mapper

Location
City:  Wittering, Northamptonshire, England, United Kingdom
ICAO:EGXT

Details
Type:Airport (Aerodrome, Airfield)
Use:Military
Latitude:52°36'45"N (52.612558)
Longitude:0°28'35"W (-0.476452)
Datum:WGS 1984
Elevation:273 ft (83 m)
Runways:1
Longest:9052 × 200 ft (2759 × 61 m)

Time
Timezone:UTC+0 (DST+3)
Local Time:

Weather
METAR:EGXT  041350Z 27014KT 9999 FEW019 BKN025 09/06 Q1014 BLU

Related Locations
Nearby:
Farthest:NZDC: 11816 mi / 19016 km
Dunedin [City Heliport], OTA, NZ

Find:

   beyond  
but within

Other Information
Maps:
Sources:

  


 


Great Circle Mapper   Great Circle Mapper
Great Circle Mapper FAQ   Great Circle Mapper FAQ
  Karl's Home Page
KLSē   KLSē Home
   GC on Facebook
Airlines of the World   Airlines of the World
Donate via PayPal


Copyright © 2004-2019, Karl L. Swartz. All rights reserved.
All trademarks mentioned herein belong to their respective owners.

Please see credits for attribution and copyright information.

Karl Swartz <karl@kls2.com>
  Powered by FreeBSD
Valid HTML 4.01!
Labeled with ICRA
hCard Microformat
Geo Microformat